Meteo Giornale » Osservazioni meteo Stati Uniti (USA) » Oshkosh Wittman
ore: 13:53 - Osservazioni Meteo Oshkosh Wittman
Lat. 43° 58' N Lon. 88° 33' W Alt. 246 metri s.l.m.
32 °C
Nuvoloso
Temp. 24 Ore
22 °C
32 °C
Sud-Ovest
11.1 Km/h
Dew point 22 °C
Umidità 55 %
Visibilità 10 Km
Il sole sorge alle ore 06:17
Il sole tramonta alle ore 19:30
| Data e Ora | Cielo e Fenomeni | T °C | DP °C | Um. % | Pres. hPa | Vis. km | Vento km/h | |
|---|---|---|---|---|---|---|---|---|
| Oggi h: 13:53 | Nuvoloso | 32 | 22 | 55 | 1013 | 10 | SO 11.1 | |
| Oggi h: 13:06 | Molto Nuvoloso | 29 | 24 | 74 | 1013 | 10 | E/SE 11.1 | |
| Oggi h: 12:53 | Molto Nuvoloso | 31 | 24 | 66 | 1013 | 10 | E/SE 14.8 | |
| Oggi h: 12:33 | Coperto | 29 | 24 | 74 | 1013 | 10 | E 7.4 | |
| Oggi h: 11:53 | Nuvoloso | 30 | 24 | 70 | 1014 | 10 | N 0 | |
| Oggi h: 11:17 | Poco Nuvoloso | 29 | 24 | 74 | 1014 | 10 | E 7.4 | |
| Oggi h: 10:53 | Molto Nuvoloso | 29 | 24 | 74 | 1014 | 10 | N 0 | |
| Oggi h: 10:40 | Molto Nuvoloso | 28 | 24 | 78 | 1014 | 10 | N/NO 7.4 | |
| Oggi h: 09:53 | Sereno | 27 | 24 | 83 | 1014 | 10 | O 7.4 | |
| Oggi h: 08:53 | Sereno | 26 | 24 | 88 | 1014 | 14 | N 0 | |
| Oggi h: 07:53 | Sereno | 24 | 23 | 94 | 1014 | 11 | N 0 | |
| Oggi h: 06:53 | Foschia | 23 | 22 | 94 | 1013 | 8 | O 7.4 | |
| Oggi h: 05:53 | Foschia | 23 | 22 | 94 | 1013 | 10 | O 7.4 | |
| Oggi h: 04:53 | Sereno | 23 | 22 | 94 | 1012 | 11 | O/SO 9.3 | |
| Oggi h: 03:53 | Sereno | 23 | 22 | 94 | 1012 | 14 | O 7.4 | |
| Oggi h: 02:53 | Poco Nuvoloso | 23 | 22 | 94 | 1012 | 11 | N 0 | |
| Oggi h: 01:53 | Sereno | 23 | 22 | 94 | 1012 | 11 | N 5.5 | |
| Oggi h: 00:53 | Sereno | 22 | 22 | 100 | 1012 | 13 | N 5.5 | |
| Ieri h: 23:53 | Sereno | 24 | 22 | 88 | 1012 | 10 | N 5.5 | |
| Ieri h: 22:53 | Sereno | 23 | 22 | 94 | 1012 | 10 | S/SO 9.3 | |
| Ieri h: 21:53 | Sereno | 24 | 22 | 88 | 1012 | 10 | S 7.4 | |
| Ieri h: 20:53 | Sereno | 26 | 23 | 83 | 1012 | 10 | N 5.5 | |
| Ieri h: 19:53 | Sereno | 27 | 23 | 78 | 1011 | 10 | S/SO 9.3 | |
| Ieri h: 18:53 | Sereno | 28 | 23 | 74 | 1011 | 10 | S/SO 14.8 | |
| Ieri h: 17:53 | Sereno | 29 | 23 | 70 | 1010 | 10 | S/SO 11.1 | |
| Ieri h: 16:53 | Sereno | 30 | 23 | 66 | 1011 | 10 | SO 13 | |
| Ieri h: 15:53 | Sereno | 31 | 23 | 62 | 1010 | 10 | SO 9.3 | |
| Ieri h: 14:53 | Sereno | 32 | 22 | 55 | 1010 | 10 | O/SO 13 | |



